Terminal Aerodrome Forecast
Issued by NWS Brownsville, TX

Current Version | Previous Version | Text Only | Print | Product List | Glossary On
Versions: 1 2 3 4 5 6 7 8 9 10 11 12 13 14 15 16 17
088
FTUS44 KBRO 061259 AAA
TAFHRL
TAF AMD
KHRL 061259Z 0613/0712 16003KT P6SM SKC
     FM070000 11012KT P6SM SKC
     FM070600 13005KT P6SM SCT250=

USA.gov is the U.S. government's official web portal to all federal, state and local government web resources and services.